Time;durP1;ratioP1;P1;durP2;ratioP2;P2;SDS_P1;SDS_P2;PMS_P1;PMS_P2;Temp;Humidity;BMP_temperature;BMP_pressure;BME280_temperature;BME280_humidity;BME280_pressure;Samples;Min_cycle;Max_cycle;Signal;HPM_P1;HPM_P2
2023/02/27 00:01:09;;;;;;;3.83;3.10;;;-0.70;93.90;;;;;;5065433;28;20205;-87
2023/02/27 00:03:36;;;;;;;3.73;3.17;;;-0.70;93.90;;;;;;5061119;28;20202;-87
2023/02/27 00:06:05;;;;;;;4.03;3.07;;;-0.80;93.90;;;;;;5064792;28;20599;-87
2023/02/27 00:08:39;;;;;;;3.73;2.87;;;-0.70;93.90;;;;;;5044699;28;20221;-88
2023/02/27 00:11:06;;;;;;;3.67;3.10;;;-0.80;93.90;;;;;;5064530;28;20272;-88
2023/02/27 00:13:33;;;;;;;4.47;3.00;;;-0.80;93.80;;;;;;5065569;28;20655;-87
2023/02/27 00:16:00;;;;;;;4.87;3.00;;;-0.90;93.90;;;;;;5062414;28;20209;-87
2023/02/27 00:18:29;;;;;;;3.33;3.00;;;-0.80;93.90;;;;;;5049646;28;20204;-87
2023/02/27 00:20:56;;;;;;;3.37;3.00;;;-0.90;93.90;;;;;;5061435;28;20206;-87
2023/02/27 00:23:24;;;;;;;4.77;3.20;;;-1.00;94.20;;;;;;5060584;28;20626;-87
2023/02/27 00:25:53;;;;;;;3.87;3.10;;;-0.90;94.50;;;;;;5062480;28;20217;-87
2023/02/27 00:28:20;;;;;;;4.57;3.10;;;-1.00;94.20;;;;;;5061021;28;20698;-88
2023/02/27 00:30:47;;;;;;;4.53;3.20;;;-1.00;94.40;;;;;;5066155;28;20201;-87
2023/02/27 00:33:14;;;;;;;3.23;2.93;;;-1.00;94.50;;;;;;5060010;28;20197;-87
2023/02/27 00:35:41;;;;;;;3.20;2.90;;;-0.90;94.10;;;;;;5063141;28;20198;-87
2023/02/27 00:38:08;;;;;;;3.50;2.73;;;-0.90;94.20;;;;;;5063435;28;20202;-87
2023/02/27 00:40:36;;;;;;;3.40;2.90;;;-0.90;94.10;;;;;;5050556;28;20206;-87
2023/02/27 00:43:03;;;;;;;4.07;2.67;;;-0.80;94.40;;;;;;5067276;28;20197;-87
2023/02/27 00:45:30;;;;;;;3.27;2.90;;;-0.80;94.10;;;;;;5049806;28;20218;-87
2023/02/27 00:47:57;;;;;;;5.40;2.90;;;-0.80;94.10;;;;;;5041052;28;20206;-87
2023/02/27 00:50:24;;;;;;;3.73;2.80;;;-0.80;94.20;;;;;;5064804;28;20205;-88
2023/02/27 00:52:51;;;;;;;3.80;2.80;;;-0.90;94.00;;;;;;5061485;28;20205;-87
2023/02/27 00:55:18;;;;;;;3.20;2.73;;;-0.80;94.20;;;;;;5068045;28;20198;-87
2023/02/27 00:57:46;;;;;;;3.20;2.90;;;-0.90;94.30;;;;;;5066177;28;20227;-87
2023/02/27 01:00:14;;;;;;;3.57;2.97;;;-0.90;94.40;;;;;;5064711;28;20199;-87
2023/02/27 01:02:41;;;;;;;4.40;3.13;;;-0.90;94.40;;;;;;5035798;28;20685;-87
2023/02/27 01:05:09;;;;;;;4.33;2.83;;;-1.00;94.70;;;;;;5063381;28;20197;-87
2023/02/27 01:07:39;;;;;;;3.90;2.80;;;-0.90;94.80;;;;;;5065831;28;20223;-87
2023/02/27 01:10:07;;;;;;;3.20;2.90;;;-1.00;94.70;;;;;;5066485;28;20201;-88
2023/02/27 01:12:34;;;;;;;3.80;3.20;;;-1.00;94.80;;;;;;5070972;28;20196;-87
2023/02/27 01:15:03;;;;;;;4.33;3.03;;;-0.90;94.70;;;;;;5064925;28;20206;-87
2023/02/27 01:17:30;;;;;;;4.93;2.73;;;-1.00;94.90;;;;;;5066952;28;20198;-87
2023/02/27 01:19:56;;;;;;;3.57;3.20;;;-1.00;94.90;;;;;;5068711;28;20200;-87
2023/02/27 01:22:23;;;;;;;5.53;3.63;;;-0.90;94.80;;;;;;5064572;28;20279;-87
2023/02/27 01:24:50;;;;;;;5.23;3.30;;;-1.00;94.70;;;;;;5066908;28;20666;-86
2023/02/27 01:27:17;;;;;;;3.60;3.00;;;-1.10;94.90;;;;;;5069843;28;20232;-87
2023/02/27 01:29:45;;;;;;;4.37;2.90;;;-1.10;95.10;;;;;;5058477;28;20208;-87
2023/02/27 01:32:15;;;;;;;4.30;2.90;;;-1.00;95.10;;;;;;5064143;28;20209;-87
2023/02/27 01:34:41;;;;;;;3.23;2.90;;;-1.00;95.10;;;;;;5067388;28;20224;-88
2023/02/27 01:37:09;;;;;;;4.80;2.90;;;-1.10;95.20;;;;;;5072852;28;20202;-88
2023/02/27 01:39:35;;;;;;;6.13;3.33;;;-1.20;95.30;;;;;;5058073;28;20240;-87
2023/02/27 01:42:03;;;;;;;3.80;3.20;;;-1.20;95.50;;;;;;5062536;28;20201;-87
2023/02/27 01:44:31;;;;;;;4.47;3.00;;;-1.10;95.50;;;;;;5036769;28;20190;-87
2023/02/27 01:46:58;;;;;;;5.07;3.40;;;-1.00;95.30;;;;;;5061040;28;20972;-89
2023/02/27 01:49:31;;;;;;;4.07;2.87;;;-1.00;95.20;;;;;;5067928;28;20212;-88
2023/02/27 01:52:04;;;;;;;4.20;2.97;;;-1.10;95.30;;;;;;5062990;28;20193;-87
2023/02/27 01:54:34;;;;;;;5.87;3.17;;;-1.10;95.20;;;;;;5062968;28;20974;-87
2023/02/27 01:57:05;;;;;;;4.03;3.30;;;-1.10;95.20;;;;;;5062628;28;20204;-87
2023/02/27 01:59:33;;;;;;;4.03;3.07;;;-1.10;95.30;;;;;;5065274;28;20190;-88
2023/02/27 02:02:03;;;;;;;4.87;3.67;;;-1.10;95.50;;;;;;5061011;28;20202;-88
2023/02/27 02:04:35;;;;;;;4.67;3.53;;;-1.10;95.40;;;;;;5062206;28;20219;-87
2023/02/27 02:07:04;;;;;;;7.07;3.47;;;-1.10;95.20;;;;;;5067771;28;20231;-88
2023/02/27 02:09:34;;;;;;;4.27;3.10;;;-1.10;95.40;;;;;;5065640;28;20688;-87
2023/02/27 02:12:01;;;;;;;3.50;2.90;;;-1.20;95.10;;;;;;5046455;28;20206;-87
2023/02/27 02:14:28;;;;;;;4.57;3.30;;;-1.20;95.40;;;;;;5055457;28;20197;-87
2023/02/27 02:17:12;;;;;;;6.67;3.37;;;-1.20;95.20;;;;;;5060025;28;20205;-87
2023/02/27 02:20:14;;;;;;;4.10;3.30;;;-1.20;95.50;;;;;;5046108;28;20250;-87
2023/02/27 02:23:05;;;;;;;4.93;3.37;;;-1.20;95.40;;;;;;5064680;28;20220;-88
2023/02/27 02:26:17;;;;;;;4.27;3.00;;;-1.20;95.40;;;;;;5058918;28;20209;-87
2023/02/27 02:29:12;;;;;;;3.73;2.93;;;-1.20;95.30;;;;;;5044586;28;20260;-87
2023/02/27 02:32:06;;;;;;;3.60;2.97;;;-1.20;95.10;;;;;;5065314;28;20585;-86
2023/02/27 02:35:18;;;;;;;3.47;3.13;;;-1.20;95.30;;;;;;5065780;28;20208;-87
2023/02/27 02:40:57;;;;;;;4.07;3.23;;;-1.20;95.10;;;;;;5141278;27;20621;-89
2023/02/27 02:43:30;;;;;;;4.93;2.90;;;-1.20;95.20;;;;;;5128577;27;20644;-87
2023/02/27 02:46:03;;;;;;;5.00;3.30;;;-1.20;95.20;;;;;;5126384;27;20249;-86
2023/02/27 02:48:35;;;;;;;5.87;3.63;;;-1.30;95.20;;;;;;5128580;27;20205;-88
2023/02/27 02:51:09;;;;;;;4.47;3.47;;;-1.30;95.50;;;;;;5128718;27;20598;-87
2023/02/27 02:53:42;;;;;;;4.63;3.20;;;-1.30;95.40;;;;;;5123370;27;20214;-87
2023/02/27 02:56:21;;;;;;;6.63;3.50;;;-1.40;95.40;;;;;;5128689;27;20188;-87
2023/02/27 02:58:54;;;;;;;7.70;3.43;;;-1.40;95.60;;;;;;5135328;27;20224;-89
2023/02/27 03:01:26;;;;;;;4.60;3.40;;;-1.40;95.40;;;;;;5118645;27;20196;-88
2023/02/27 03:03:56;;;;;;;4.90;3.27;;;-1.40;95.50;;;;;;5124599;27;20203;-89
2023/02/27 03:06:29;;;;;;;4.03;3.10;;;-1.40;95.80;;;;;;5123582;28;20196;-89
2023/02/27 03:08:58;;;;;;;5.67;3.10;;;-1.40;95.60;;;;;;5122739;28;20204;-88
2023/02/27 03:11:33;;;;;;;4.77;3.47;;;-1.40;95.80;;;;;;5126883;27;20189;-88
2023/02/27 03:14:07;;;;;;;4.03;3.20;;;-1.30;95.40;;;;;;5127834;27;20199;-88
2023/02/27 03:16:39;;;;;;;4.70;3.53;;;-1.30;95.30;;;;;;5122068;27;20199;-88
2023/02/27 03:19:14;;;;;;;4.03;3.07;;;-1.30;95.30;;;;;;5126071;27;20217;-88
2023/02/27 03:21:48;;;;;;;4.30;3.50;;;-1.20;95.20;;;;;;5122070;27;20223;-88
2023/02/27 03:24:19;;;;;;;4.60;3.50;;;-1.30;95.30;;;;;;5111227;27;20196;-88
2023/02/27 03:26:51;;;;;;;6.60;3.30;;;-1.30;95.20;;;;;;5122356;27;20261;-88
2023/02/27 03:29:23;;;;;;;4.87;3.57;;;-1.30;95.40;;;;;;5127995;27;20199;-88
2023/02/27 03:31:57;;;;;;;4.20;3.50;;;-1.30;95.40;;;;;;5125892;27;20582;-88
2023/02/27 03:34:29;;;;;;;5.10;3.30;;;-1.30;95.30;;;;;;5124086;27;20963;-88
2023/02/27 03:37:04;;;;;;;5.20;3.40;;;-1.20;95.00;;;;;;5123197;27;20200;-88
2023/02/27 03:39:38;;;;;;;5.30;3.23;;;-1.20;95.00;;;;;;5121674;28;20214;-89
2023/02/27 03:42:14;;;;;;;3.60;3.10;;;-1.20;95.10;;;;;;5126278;27;20187;-88
2023/02/27 03:44:51;;;;;;;4.10;3.40;;;-1.20;95.00;;;;;;5124742;27;20203;-88
2023/02/27 03:47:19;;;;;;;4.77;3.67;;;-1.10;94.80;;;;;;5124663;28;20211;-88
2023/02/27 03:49:45;;;;;;;5.17;3.53;;;-1.10;95.00;;;;;;5124187;27;20659;-88
2023/02/27 03:52:12;;;;;;;4.83;3.50;;;-1.10;94.80;;;;;;5103082;28;20230;-88
2023/02/27 03:54:48;;;;;;;4.77;2.90;;;-1.10;94.80;;;;;;5103072;28;20206;-88
2023/02/27 03:57:16;;;;;;;4.30;3.87;;;-1.10;94.70;;;;;;5099393;28;20206;-88
2023/02/27 03:59:43;;;;;;;3.57;3.13;;;-1.00;94.50;;;;;;5115909;27;20592;-88
2023/02/27 04:02:11;;;;;;;5.30;2.93;;;-1.00;94.50;;;;;;5105919;28;20203;-88
2023/02/27 04:04:38;;;;;;;4.00;3.00;;;-1.00;94.30;;;;;;5112113;28;20301;-88
2023/02/27 04:07:23;;;;;;;5.37;3.40;;;-1.10;94.50;;;;;;5117397;27;20191;-89
2023/02/27 04:10:15;;;;;;;5.07;3.20;;;-1.00;94.50;;;;;;5110037;28;20283;-88
2023/02/27 04:13:12;;;;;;;3.47;3.03;;;-1.00;94.50;;;;;;5110571;28;20564;-89
2023/02/27 04:15:54;;;;;;;3.93;3.10;;;-1.10;94.30;;;;;;5081872;28;20209;-88
2023/02/27 04:18:33;;;;;;;5.37;3.33;;;-1.00;94.20;;;;;;5108438;28;20196;-88
2023/02/27 04:21:07;;;;;;;4.60;3.40;;;-1.00;94.20;;;;;;5099744;28;20234;-88
2023/02/27 04:23:38;;;;;;;4.37;3.20;;;-1.10;94.10;;;;;;5106845;28;20759;-88
2023/02/27 04:26:16;;;;;;;4.43;3.10;;;-1.00;94.00;;;;;;5109180;28;20669;-88
2023/02/27 04:28:49;;;;;;;3.47;2.90;;;-1.10;94.30;;;;;;5106154;28;20195;-88
2023/02/27 04:31:23;;;;;;;4.13;3.00;;;-1.00;93.80;;;;;;5106694;28;20216;-88
2023/02/27 04:33:54;;;;;;;4.90;3.47;;;-1.00;93.80;;;;;;5105426;28;20211;-90
2023/02/27 04:36:27;;;;;;;4.73;3.33;;;-1.00;94.10;;;;;;5107064;27;20195;-88
2023/02/27 04:39:01;;;;;;;5.70;3.60;;;-1.00;93.80;;;;;;5101380;27;20204;-88
2023/02/27 04:41:32;;;;;;;4.57;3.00;;;-1.00;93.80;;;;;;5110506;28;20200;-88
2023/02/27 04:44:03;;;;;;;4.50;3.37;;;-1.10;93.80;;;;;;5111910;27;20200;-88
2023/02/27 04:46:32;;;;;;;5.10;3.53;;;-1.10;94.10;;;;;;5105499;28;20196;-88
2023/02/27 04:49:04;;;;;;;6.27;3.43;;;-1.10;94.20;;;;;;5108617;27;20203;-88
2023/02/27 04:51:35;;;;;;;5.23;3.60;;;-1.10;93.80;;;;;;5102360;28;20188;-88
2023/02/27 04:54:08;;;;;;;5.03;3.30;;;-1.00;94.10;;;;;;5093770;28;20212;-88
2023/02/27 04:56:37;;;;;;;4.37;3.20;;;-1.00;94.00;;;;;;5107201;27;20201;-89
2023/02/27 04:59:10;;;;;;;4.00;3.03;;;-1.00;93.80;;;;;;5107562;27;20203;-88
2023/02/27 05:01:41;;;;;;;5.27;3.30;;;-1.00;93.80;;;;;;5112771;28;20184;-88
2023/02/27 05:04:11;;;;;;;5.13;3.00;;;-1.00;93.80;;;;;;5105465;28;20193;-88
2023/02/27 05:06:41;;;;;;;4.17;3.50;;;-1.00;93.80;;;;;;5112242;28;20201;-88
2023/02/27 05:09:14;;;;;;;5.67;3.30;;;-1.00;93.80;;;;;;5107020;27;20290;-88
2023/02/27 05:11:45;;;;;;;5.10;3.17;;;-1.00;93.80;;;;;;5103046;28;20201;-87
2023/02/27 05:14:18;;;;;;;4.87;3.80;;;-1.00;93.80;;;;;;5103552;28;20196;-88
2023/02/27 05:16:51;;;;;;;4.30;3.30;;;-1.10;93.80;;;;;;5108552;27;20196;-88
2023/02/27 05:19:19;;;;;;;5.03;3.30;;;-1.10;93.80;;;;;;5097457;28;20198;-88
2023/02/27 05:21:53;;;;;;;4.37;3.53;;;-1.10;93.80;;;;;;5099140;28;20278;-88
2023/02/27 05:24:30;;;;;;;3.60;3.17;;;-1.10;93.80;;;;;;5102023;28;20202;-88
2023/02/27 05:27:17;;;;;;;4.33;3.30;;;-1.10;93.80;;;;;;5103306;28;20660;-88
2023/02/27 05:29:49;;;;;;;4.10;3.40;;;-1.20;93.80;;;;;;5104437;28;20248;-88
2023/02/27 05:32:28;;;;;;;5.90;3.40;;;-1.20;93.80;;;;;;5108473;28;20192;-88
2023/02/27 05:35:02;;;;;;;4.27;3.10;;;-1.20;93.80;;;;;;5099998;27;20202;-88
2023/02/27 05:37:32;;;;;;;3.90;3.20;;;-1.20;93.80;;;;;;5104917;27;20564;-88
2023/02/27 05:40:04;;;;;;;5.20;3.17;;;-1.20;93.80;;;;;;5104280;28;20224;-88
2023/02/27 05:42:36;;;;;;;6.53;3.37;;;-1.30;93.70;;;;;;5106131;28;20185;-86
2023/02/27 05:45:10;;;;;;;4.70;3.30;;;-1.20;93.80;;;;;;5096725;28;20203;-87
2023/02/27 05:47:41;;;;;;;5.30;3.33;;;-1.20;93.80;;;;;;5109624;28;20195;-87
2023/02/27 05:50:11;;;;;;;4.37;3.43;;;-1.30;93.70;;;;;;5106511;27;20712;-85
2023/02/27 05:52:40;;;;;;;4.00;3.30;;;-1.20;93.80;;;;;;5104998;28;20201;-86
2023/02/27 05:55:12;;;;;;;5.50;3.57;;;-1.30;93.70;;;;;;5110973;28;20201;-87
2023/02/27 05:57:43;;;;;;;3.47;2.90;;;-1.30;93.80;;;;;;5108024;28;20565;-87
2023/02/27 06:00:17;;;;;;;4.40;3.20;;;-1.30;93.70;;;;;;5105455;27;20572;-87
2023/02/27 06:02:45;;;;;;;6.70;3.73;;;-1.30;93.70;;;;;;5105118;27;20199;-87
2023/02/27 06:05:14;;;;;;;6.03;3.20;;;-1.30;93.70;;;;;;5103711;28;20262;-88
2023/02/27 06:07:41;;;;;;;5.37;3.30;;;-1.40;93.70;;;;;;5107472;27;20204;-85
2023/02/27 06:10:13;;;;;;;4.80;3.37;;;-1.40;93.70;;;;;;5098943;28;20197;-86
2023/02/27 06:12:40;;;;;;;5.07;3.50;;;-1.30;93.80;;;;;;5107430;28;20204;-84
2023/02/27 06:15:08;;;;;;;5.67;3.20;;;-1.30;93.70;;;;;;5101576;28;20198;-82
2023/02/27 06:17:37;;;;;;;4.07;2.83;;;-1.30;93.70;;;;;;5105382;28;20569;-81
2023/02/27 06:20:05;;;;;;;5.37;3.13;;;-1.30;93.80;;;;;;5102286;28;20221;-81
2023/02/27 06:22:32;;;;;;;5.17;3.20;;;-1.30;93.70;;;;;;5099708;28;20221;-83
2023/02/27 06:24:59;;;;;;;4.43;3.40;;;-1.30;93.80;;;;;;5104696;27;20203;-83
2023/02/27 06:27:26;;;;;;;7.27;3.43;;;-1.30;93.70;;;;;;5107805;28;20204;-89
2023/02/27 06:29:53;;;;;;;6.93;3.60;;;-1.30;93.70;;;;;;5101503;28;20215;-82
2023/02/27 06:32:22;;;;;;;4.57;3.50;;;-1.20;93.80;;;;;;5102544;28;20245;-82
2023/02/27 06:34:51;;;;;;;3.97;3.23;;;-1.20;93.80;;;;;;5108466;28;20293;-86
2023/02/27 06:37:17;;;;;;;5.87;3.57;;;-1.20;93.50;;;;;;5104870;28;20214;-80
2023/02/27 06:39:44;;;;;;;4.77;3.07;;;-1.20;93.40;;;;;;5098285;28;20202;-82
2023/02/27 06:42:11;;;;;;;4.40;3.07;;;-1.10;93.30;;;;;;5111643;28;20200;-82
2023/02/27 06:44:38;;;;;;;3.37;3.07;;;-1.00;93.20;;;;;;5111566;28;20205;-81
2023/02/27 06:47:05;;;;;;;4.80;3.60;;;-1.00;93.20;;;;;;5101265;28;20932;-85
2023/02/27 06:49:32;;;;;;;4.53;3.40;;;-1.00;93.10;;;;;;5102442;28;20198;-85
2023/02/27 06:52:00;;;;;;;5.80;3.20;;;-0.80;92.90;;;;;;5098535;28;20609;-86
2023/02/27 06:54:27;;;;;;;4.73;3.13;;;-0.80;92.80;;;;;;5106754;28;20204;-87
2023/02/27 06:56:55;;;;;;;4.63;3.47;;;-0.70;92.50;;;;;;5106903;28;20195;-80
2023/02/27 06:59:22;;;;;;;4.60;3.17;;;-0.70;92.50;;;;;;5107906;28;20231;-81
2023/02/27 07:01:48;;;;;;;5.47;3.33;;;-0.70;92.30;;;;;;5108704;28;20582;-82
2023/02/27 07:04:16;;;;;;;3.80;3.20;;;-0.60;92.20;;;;;;5102343;28;20257;-81
2023/02/27 07:06:43;;;;;;;8.10;3.03;;;-0.50;91.80;;;;;;5105732;28;20664;-82
2023/02/27 07:09:11;;;;;;;4.73;3.30;;;-0.60;92.00;;;;;;5103163;28;20211;-80
2023/02/27 07:11:38;;;;;;;4.90;3.33;;;-0.50;91.30;;;;;;5104698;28;20210;-82
2023/02/27 07:14:07;;;;;;;5.70;3.40;;;-0.40;91.40;;;;;;5108231;28;20204;-80
2023/02/27 07:16:34;;;;;;;5.33;3.20;;;-0.40;91.50;;;;;;5105067;28;20207;-81
2023/02/27 07:19:01;;;;;;;4.30;3.20;;;-0.30;91.20;;;;;;5104332;28;20212;-80
2023/02/27 07:21:28;;;;;;;4.10;2.90;;;-0.30;91.00;;;;;;5108021;27;20224;-87
2023/02/27 07:23:55;;;;;;;5.17;3.93;;;-0.20;90.80;;;;;;5105181;28;20678;-86
2023/02/27 07:26:23;;;;;;;4.37;3.40;;;-0.20;90.70;;;;;;5102346;27;20204;-82
2023/02/27 07:28:50;;;;;;;4.53;3.10;;;-0.20;90.50;;;;;;5105938;28;20728;-84
2023/02/27 07:31:17;;;;;;;3.50;3.20;;;-0.10;90.70;;;;;;5109705;28;20196;-82
2023/02/27 07:33:44;;;;;;;4.20;3.03;;;-0.10;90.40;;;;;;5120985;27;20202;-83
2023/02/27 07:36:11;;;;;;;5.50;3.33;;;-0.10;90.50;;;;;;5117857;27;20553;-83
2023/02/27 07:38:38;;;;;;;5.53;3.03;;;-0.10;90.30;;;;;;5115215;27;20214;-81
2023/02/27 07:41:05;;;;;;;5.10;3.03;;;-0.10;90.30;;;;;;5111524;27;20223;-83
2023/02/27 07:43:33;;;;;;;5.07;3.10;;;-0.10;90.20;;;;;;5106429;27;20200;-81
2023/02/27 07:46:02;;;;;;;4.77;3.27;;;0.00;90.30;;;;;;5110996;28;20670;-83
2023/02/27 07:48:30;;;;;;;4.80;2.80;;;-0.10;89.90;;;;;;5108145;28;20191;-83
2023/02/27 07:50:56;;;;;;;6.93;3.23;;;-0.10;89.70;;;;;;5097699;28;20247;-81
2023/02/27 07:53:23;;;;;;;3.37;3.00;;;0.00;89.10;;;;;;5102509;28;20205;-81
2023/02/27 07:55:50;;;;;;;4.47;3.30;;;0.20;87.80;;;;;;5107604;28;20204;-82
2023/02/27 07:58:17;;;;;;;4.77;2.93;;;0.20;87.10;;;;;;5111431;28;20195;-78
2023/02/27 08:00:45;;;;;;;5.00;3.17;;;0.30;86.00;;;;;;5102986;28;20226;-80
2023/02/27 08:03:12;;;;;;;6.17;3.20;;;0.50;86.10;;;;;;5109439;27;20199;-79
2023/02/27 08:05:39;;;;;;;16.00;3.73;;;0.50;85.90;;;;;;5108081;28;20206;-81
2023/02/27 08:08:06;;;;;;;4.27;3.13;;;0.50;84.00;;;;;;5095274;28;20197;-79
2023/02/27 08:10:33;;;;;;;6.57;3.07;;;0.60;86.20;;;;;;5111349;28;20196;-79
2023/02/27 08:12:59;;;;;;;7.83;3.87;;;0.80;82.50;;;;;;5114056;28;20204;-79
2023/02/27 08:15:26;;;;;;;7.20;3.30;;;0.80;81.60;;;;;;5111676;28;20566;-82
2023/02/27 08:17:55;;;;;;;5.30;3.30;;;0.90;80.20;;;;;;5107203;28;20686;-82
2023/02/27 08:20:22;;;;;;;4.17;3.00;;;0.90;80.10;;;;;;5109660;28;20567;-81
2023/02/27 08:22:50;;;;;;;3.60;3.13;;;0.80;80.10;;;;;;5114935;27;20216;-81
2023/02/27 08:25:17;;;;;;;7.03;2.97;;;0.80;80.60;;;;;;5113699;28;20194;-80
2023/02/27 08:27:44;;;;;;;4.77;3.40;;;0.80;79.30;;;;;;5105355;28;20200;-78
2023/02/27 08:30:12;;;;;;;7.93;3.40;;;0.90;80.10;;;;;;5108117;28;20241;-80
2023/02/27 08:32:39;;;;;;;7.97;3.47;;;0.90;78.40;;;;;;5101127;28;20707;-79
2023/02/27 08:35:09;;;;;;;5.43;3.40;;;0.80;80.00;;;;;;5115574;27;20574;-78
2023/02/27 08:37:36;;;;;;;5.57;3.70;;;1.00;79.50;;;;;;5116232;27;20200;-79
2023/02/27 08:40:03;;;;;;;4.87;3.67;;;0.90;78.70;;;;;;5109852;27;20586;-80
2023/02/27 08:42:30;;;;;;;4.63;3.73;;;1.00;77.50;;;;;;5114182;27;20227;-81
2023/02/27 08:44:57;;;;;;;6.70;3.50;;;1.10;77.40;;;;;;5113543;27;20211;-80
2023/02/27 08:47:23;;;;;;;6.10;3.70;;;1.10;78.00;;;;;;5117251;27;20204;-80
2023/02/27 08:49:51;;;;;;;4.77;3.50;;;1.30;76.00;;;;;;5101251;27;20295;-79
2023/02/27 08:52:19;;;;;;;5.27;3.60;;;1.20;76.90;;;;;;5110997;28;21566;-80
2023/02/27 08:54:45;;;;;;;7.73;3.80;;;1.10;77.80;;;;;;5110742;27;20220;-81
2023/02/27 08:57:12;;;;;;;6.47;3.63;;;1.30;74.30;;;;;;5107593;27;20659;-80
2023/02/27 08:59:39;;;;;;;8.07;3.80;;;1.30;71.90;;;;;;5111456;28;20212;-80
2023/02/27 09:02:06;;;;;;;6.53;3.53;;;1.30;72.50;;;;;;5115527;27;20216;-80
2023/02/27 09:04:33;;;;;;;6.80;3.50;;;1.40;72.30;;;;;;5115098;27;20250;-82
2023/02/27 09:07:00;;;;;;;7.70;3.60;;;1.40;70.00;;;;;;5111629;28;20196;-79
2023/02/27 09:09:28;;;;;;;10.57;3.50;;;1.50;71.80;;;;;;5107677;28;20651;-79
2023/02/27 09:11:55;;;;;;;5.20;3.70;;;1.70;69.30;;;;;;5100723;28;20292;-82
2023/02/27 09:14:22;;;;;;;7.30;3.87;;;1.80;66.30;;;;;;5103506;28;20195;-83
2023/02/27 09:16:49;;;;;;;4.80;3.57;;;1.90;65.40;;;;;;5104535;28;20205;-79
2023/02/27 09:19:16;;;;;;;8.30;3.60;;;1.80;66.40;;;;;;5107870;28;20200;-83
2023/02/27 09:21:43;;;;;;;6.87;3.87;;;1.90;61.70;;;;;;5106116;28;20243;-82
2023/02/27 09:24:10;;;;;;;5.07;3.60;;;1.90;61.80;;;;;;5108942;28;20287;-82
2023/02/27 09:26:38;;;;;;;6.90;3.97;;;1.80;62.50;;;;;;5104416;28;20207;-84
2023/02/27 09:29:05;;;;;;;5.40;3.90;;;1.70;65.80;;;;;;5104755;28;20228;-79
2023/02/27 09:31:32;;;;;;;4.20;3.60;;;1.20;67.80;;;;;;5108543;28;20218;-80
2023/02/27 09:34:00;;;;;;;5.77;4.13;;;1.20;70.40;;;;;;5108892;28;20208;-79
2023/02/27 09:36:27;;;;;;;8.77;4.30;;;0.80;75.40;;;;;;5101856;27;20287;-81
2023/02/27 09:38:54;;;;;;;6.73;4.40;;;0.70;79.70;;;;;;5097242;27;20208;-80
2023/02/27 09:41:34;;;;;;;9.40;4.37;;;0.60;81.80;;;;;;5101423;28;20288;-80
2023/02/27 09:44:03;;;;;;;5.83;4.00;;;0.50;86.20;;;;;;5107439;28;20301;-78
2023/02/27 09:46:30;;;;;;;5.67;4.60;;;0.50;87.70;;;;;;5099839;28;20220;-77
2023/02/27 09:48:59;;;;;;;9.57;4.03;;;0.70;87.10;;;;;;5108779;28;20196;-77
2023/02/27 09:51:27;;;;;;;6.43;4.50;;;0.90;86.40;;;;;;5101587;28;20708;-79
2023/02/27 09:53:57;;;;;;;9.67;4.40;;;1.10;85.60;;;;;;5108162;28;20196;-77
2023/02/27 09:56:26;;;;;;;8.00;4.50;;;1.20;82.50;;;;;;5107415;28;20196;-77
2023/02/27 09:59:03;;;;;;;8.60;4.17;;;1.20;86.30;;;;;;5099378;28;20195;-80
2023/02/27 10:01:36;;;;;;;5.83;3.83;;;1.60;81.40;;;;;;5110156;28;20199;-78
2023/02/27 10:04:32;;;;;;;7.60;4.40;;;1.50;80.10;;;;;;5102475;28;20205;-80
2023/02/27 10:07:07;;;;;;;6.80;4.33;;;1.60;79.20;;;;;;5108183;28;20192;-80
2023/02/27 10:09:45;;;;;;;5.67;3.93;;;1.70;77.40;;;;;;5109743;28;20211;-80
2023/02/27 10:12:42;;;;;;;6.53;3.67;;;1.90;75.00;;;;;;5097675;28;20196;-82
2023/02/27 10:15:14;;;;;;;6.03;3.70;;;2.30;63.60;;;;;;5099989;28;20203;-81
2023/02/27 10:17:48;;;;;;;11.00;3.90;;;2.50;59.90;;;;;;5109095;28;20199;-79
2023/02/27 10:20:23;;;;;;;6.27;4.03;;;2.80;54.40;;;;;;5105133;27;20198;-82
2023/02/27 10:22:52;;;;;;;7.57;3.87;;;2.50;51.30;;;;;;5101113;28;20238;-79
2023/02/27 10:25:20;;;;;;;7.67;3.87;;;2.50;50.50;;;;;;5105478;28;20196;-81
2023/02/27 10:27:50;;;;;;;6.20;3.90;;;2.50;52.50;;;;;;5109899;28;20200;-81
2023/02/27 10:30:22;;;;;;;4.30;3.57;;;2.40;50.10;;;;;;5106455;28;20287;-80
2023/02/27 10:32:54;;;;;;;5.70;3.20;;;2.40;50.10;;;;;;5109784;28;20225;-82
2023/02/27 10:35:28;;;;;;;4.97;3.20;;;2.50;47.10;;;;;;5106906;28;20204;-80
2023/02/27 10:37:59;;;;;;;5.30;3.97;;;2.70;43.60;;;;;;5100054;28;20196;-80
2023/02/27 10:40:28;;;;;;;7.33;3.87;;;2.60;44.20;;;;;;5101044;28;20200;-79
2023/02/27 10:42:56;;;;;;;8.10;3.47;;;2.50;47.50;;;;;;5109188;28;20221;-81
2023/02/27 10:45:23;;;;;;;7.13;3.70;;;2.70;46.60;;;;;;5110788;28;20196;-80
2023/02/27 10:47:51;;;;;;;5.67;3.77;;;2.50;47.40;;;;;;5109744;28;20563;-80
2023/02/27 10:50:24;;;;;;;6.80;3.53;;;2.40;47.40;;;;;;5107625;28;20196;-79
2023/02/27 10:52:52;;;;;;;5.90;3.53;;;2.60;46.10;;;;;;5122588;27;20204;-80
2023/02/27 10:55:24;;;;;;;5.93;3.47;;;2.30;42.10;;;;;;5107708;28;20614;-80
2023/02/27 10:57:54;;;;;;;4.93;2.93;;;2.20;41.50;;;;;;5116087;28;20203;-80
2023/02/27 11:00:30;;;;;;;5.53;3.10;;;2.20;40.10;;;;;;5099918;28;20333;-80
2023/02/27 11:02:59;;;;;;;5.47;3.00;;;2.40;36.00;;;;;;5109627;27;20588;-80
2023/02/27 11:05:29;;;;;;;6.50;3.13;;;2.00;36.50;;;;;;5104199;28;20196;-80
2023/02/27 11:07:57;;;;;;;5.43;3.00;;;2.10;37.30;;;;;;5124643;27;20630;-83
2023/02/27 11:10:25;;;;;;;4.67;2.73;;;2.00;37.70;;;;;;5105652;28;20197;-79
2023/02/27 11:13:01;;;;;;;3.27;2.67;;;1.90;37.20;;;;;;5100204;28;20648;-80
2023/02/27 11:15:30;;;;;;;5.70;2.93;;;2.00;37.30;;;;;;5109373;28;20202;-77
2023/02/27 11:18:20;;;;;;;6.23;3.10;;;1.70;36.30;;;;;;5114815;28;20206;-78
2023/02/27 11:20:49;;;;;;;4.07;2.70;;;1.60;39.40;;;;;;5113134;28;20710;-81
2023/02/27 11:23:19;;;;;;;4.87;2.77;;;1.40;39.30;;;;;;5111986;27;20349;-78
2023/02/27 11:25:46;;;;;;;6.37;2.67;;;1.40;38.00;;;;;;5109169;27;20192;-78
2023/02/27 11:28:23;;;;;;;6.17;3.07;;;1.40;38.80;;;;;;5111201;28;20196;-78
2023/02/27 11:30:58;;;;;;;5.63;2.70;;;1.50;38.10;;;;;;5107188;28;20654;-78
2023/02/27 11:33:28;;;;;;;6.63;2.70;;;1.50;36.10;;;;;;5106127;27;20223;-77
2023/02/27 11:35:56;;;;;;;4.43;2.70;;;1.40;36.50;;;;;;5111865;27;20200;-77
2023/02/27 11:38:26;;;;;;;3.37;2.60;;;1.50;37.50;;;;;;5112171;27;20207;-78
2023/02/27 11:40:56;;;;;;;4.00;2.70;;;1.60;36.20;;;;;;5112132;27;20611;-77
2023/02/27 11:43:26;;;;;;;4.67;2.60;;;1.50;35.00;;;;;;5112818;27;20231;-77
2023/02/27 11:45:58;;;;;;;3.80;2.30;;;1.60;34.80;;;;;;5114814;27;20200;-76
2023/02/27 11:48:29;;;;;;;3.40;2.30;;;1.50;34.20;;;;;;5105778;27;20196;-77
2023/02/27 11:51:30;;;;;;;5.17;2.43;;;1.70;33.00;;;;;;5110143;28;20201;-77
2023/02/27 11:54:20;;;;;;;8.40;2.83;;;1.70;33.30;;;;;;5106710;28;20288;-79
2023/02/27 11:57:01;;;;;;;5.70;2.23;;;1.90;32.20;;;;;;5113321;27;20570;-79
2023/02/27 11:59:42;;;;;;;4.13;2.57;;;2.00;30.90;;;;;;5109589;27;20218;-78
2023/02/27 12:02:17;;;;;;;5.23;2.77;;;1.80;32.20;;;;;;5110975;28;20214;-80
2023/02/27 12:04:49;;;;;;;4.53;2.33;;;1.90;33.50;;;;;;5099308;28;20196;-78
2023/02/27 12:07:21;;;;;;;3.57;2.30;;;1.60;34.10;;;;;;5097758;28;20200;-77
2023/02/27 12:09:53;;;;;;;3.30;1.90;;;1.60;35.00;;;;;;5112052;27;20681;-80
2023/02/27 12:12:24;;;;;;;4.03;2.50;;;1.60;36.10;;;;;;5113744;28;20204;-79
2023/02/27 12:14:59;;;;;;;4.17;2.40;;;1.60;37.20;;;;;;5108665;28;20204;-77
2023/02/27 12:17:31;;;;;;;6.13;2.67;;;1.40;36.90;;;;;;5109047;28;20656;-78
2023/02/27 12:20:12;;;;;;;6.33;2.63;;;1.50;38.40;;;;;;5105624;28;20204;-79
2023/02/27 12:22:44;;;;;;;4.07;2.30;;;1.30;40.00;;;;;;5102721;28;20228;-80
2023/02/27 12:25:28;;;;;;;5.93;2.40;;;1.50;37.30;;;;;;5110597;28;20279;-78
2023/02/27 12:27:59;;;;;;;4.90;2.27;;;1.60;37.40;;;;;;5106928;27;20566;-79
2023/02/27 12:30:29;;;;;;;5.57;2.60;;;1.70;36.70;;;;;;5109013;28;20196;-79
2023/02/27 12:33:02;;;;;;;3.10;2.40;;;1.60;37.70;;;;;;5110777;27;20196;-80
2023/02/27 12:35:32;;;;;;;4.80;2.33;;;1.60;36.00;;;;;;5109618;27;20555;-78
2023/02/27 12:38:01;;;;;;;5.03;2.43;;;1.60;35.70;;;;;;5098223;28;20195;-79
2023/02/27 12:40:33;;;;;;;5.03;2.43;;;1.50;35.80;;;;;;5108487;27;20609;-79
2023/02/27 12:43:22;;;;;;;4.23;2.30;;;1.70;35.90;;;;;;5122516;27;20219;-78
2023/02/27 12:46:00;;;;;;;5.23;2.67;;;1.80;35.60;;;;;;5102897;28;20191;-82
2023/02/27 12:48:44;;;;;;;4.40;2.70;;;2.10;34.90;;;;;;5109626;27;20269;-82
2023/02/27 12:51:31;;;;;;;2.53;2.30;;;2.20;34.20;;;;;;5110802;28;20612;-83
2023/02/27 12:54:16;;;;;;;4.20;2.60;;;2.30;31.80;;;;;;5099867;28;20253;-78
2023/02/27 12:56:56;;;;;;;3.80;2.70;;;1.90;32.00;;;;;;5104885;28;20659;-82
2023/02/27 12:59:43;;;;;;;4.33;2.50;;;1.70;34.40;;;;;;5111795;27;20666;-78
2023/02/27 13:02:27;;;;;;;4.27;2.40;;;1.70;34.10;;;;;;5100427;28;20220;-78
2023/02/27 13:05:03;;;;;;;7.07;2.67;;;1.70;34.70;;;;;;5100395;28;20196;-78
2023/02/27 13:07:36;;;;;;;4.70;2.70;;;1.60;34.00;;;;;;5099823;28;20189;-78
2023/02/27 13:10:10;;;;;;;6.10;2.70;;;1.70;34.90;;;;;;5103812;28;20203;-82
2023/02/27 13:12:44;;;;;;;8.17;2.70;;;1.80;33.80;;;;;;5106392;28;20203;-81
2023/02/27 13:15:19;;;;;;;4.93;2.30;;;2.00;33.00;;;;;;5109240;28;20233;-81